General Aviation Weather

Text Reports

Enter one or more of the following location identifiers separated by a space:

Zip Code, Four-Character ICAO or Three-Character IATA airport codes.

METAR - Aviation Routine Weather Report
KGCD - Grant County, Oregon
Updated at 9:15 PM GMT on December 26, 2014 (1:15 PM PST):
METAR KGCD 262115Z AUTO 16003KT 10SM OVC032 02/M04 A3024 RMK AO2 T00201039
TAF - Terminal Area Forecast
KGCD - Grant County, Oregon
Updated at 9:15 PM GMT on December 26, 2014 (1:15 PM PST):
No TAF is currently available for this location.
Decoded:
No decoded TAF is available.
PIREP - Pilot Weather Report
KGCD - Grant County, Oregon
Updated at 9:15 PM GMT on December 26, 2014 (1:15 PM PST):
No PIREP is currently available for this location.
AIRMET - Airmens Meteorological Information
KGCD - Grant County, Oregon
Updated at 9:15 PM GMT on December 26, 2014 (1:15 PM PST):
No AIRMET is currently available for this location.
SIGMET - Significant Meteorological Information
KGCD - Grant County, Oregon
Updated at 9:15 PM GMT on December 26, 2014 (1:15 PM PST):
No SIGMET is currently available for this location.
NOTAM - Notice to Airmen
KGCD - Grant County, Oregon
Updated at 9:15 PM GMT on December 26, 2014 (1:15 PM PST):
No NOTAM is currently available for this location.
Forecast Area
KGCD - Grant County, Oregon
Updated at 9:15 PM GMT on December 26, 2014 (1:15 PM PST):
No NOTAM is currently available for this location.
Aviation Weather Maps